Time;durP1;ratioP1;P1;durP2;ratioP2;P2;SDS_P1;SDS_P2;PMS_P1;PMS_P2;Temp;Humidity;BMP_temperature;BMP_pressure;BME280_temperature;BME280_humidity;BME280_pressure;Samples;Min_cycle;Max_cycle;Signal;HPM_P1;HPM_P2
2022/07/04 00:02:24;;;;;;;12.15;3.15;;;;;;;16.45;73.83;101501.13;4977846;28;20038;-73
2022/07/04 00:04:50;;;;;;;9.43;2.90;;;;;;;16.50;73.98;101493.22;4977125;28;20439;-73
2022/07/04 00:07:15;;;;;;;11.30;3.17;;;;;;;16.71;73.27;101498.06;4982245;28;20022;-73
2022/07/04 00:09:41;;;;;;;13.63;2.95;;;;;;;16.67;73.27;101498.56;4977240;28;20033;-74
2022/07/04 00:12:07;;;;;;;11.25;2.65;;;;;;;16.71;73.26;101489.84;4993374;28;20106;-74
2022/07/04 00:14:32;;;;;;;9.02;2.85;;;;;;;16.52;74.02;101496.63;4988529;28;20037;-74
2022/07/04 00:16:57;;;;;;;8.98;2.90;;;;;;;16.44;74.29;101488.50;4984393;28;20084;-73
2022/07/04 00:19:23;;;;;;;10.95;2.75;;;;;;;16.54;74.11;101485.50;4981771;28;20034;-73
2022/07/04 00:21:48;;;;;;;16.50;3.15;;;;;;;16.50;74.57;101487.75;4977948;28;20036;-74
2022/07/04 00:24:13;;;;;;;11.70;3.13;;;;;;;16.37;74.94;101492.97;4980546;28;20589;-73
2022/07/04 00:26:39;;;;;;;16.35;3.10;;;;;;;16.35;75.28;101495.03;4978183;28;20061;-75
2022/07/04 00:29:04;;;;;;;12.77;3.60;;;;;;;16.30;75.39;101492.00;4985322;28;20027;-73
2022/07/04 00:31:29;;;;;;;15.02;3.47;;;;;;;16.45;75.04;101484.72;4977892;28;20034;-73
2022/07/04 00:33:55;;;;;;;11.90;3.78;;;;;;;16.17;76.48;101486.25;4993831;28;20022;-74
2022/07/04 00:36:20;;;;;;;14.57;3.95;;;;;;;16.15;76.60;101491.06;4990965;28;20056;-74
2022/07/04 00:38:45;;;;;;;20.42;4.18;;;;;;;16.31;76.29;101482.78;4974176;28;20023;-73
2022/07/04 00:41:11;;;;;;;9.55;3.67;;;;;;;16.49;75.82;101486.03;4988322;28;20033;-73
2022/07/04 00:43:36;;;;;;;9.73;4.57;;;;;;;16.22;76.76;101484.69;4972392;28;20099;-73
2022/07/04 00:46:05;;;;;;;12.43;4.55;;;;;;;16.23;76.78;101482.81;4990962;28;20022;-73
2022/07/04 00:48:31;;;;;;;21.00;5.93;;;;;;;16.29;76.75;101484.81;4978846;28;20022;-74
2022/07/04 00:50:58;;;;;;;12.30;4.55;;;;;;;16.17;77.18;101486.25;4974339;28;20033;-73
2022/07/04 00:53:23;;;;;;;16.58;4.47;;;;;;;16.29;76.90;101484.81;4994295;28;20557;-74
2022/07/04 00:55:52;;;;;;;18.08;5.88;;;;;;;16.24;76.94;101481.81;4972634;28;20046;-73
2022/07/04 00:58:20;;;;;;;21.80;5.78;;;;;;;16.04;77.84;101486.00;4997531;28;20541;-73
2022/07/04 01:00:46;;;;;;;13.77;5.93;;;;;;;16.20;77.18;101485.91;4973706;28;20018;-74
2022/07/04 01:03:11;;;;;;;12.80;5.50;;;;;;;16.13;77.23;101490.41;4969353;28;20021;-74
2022/07/04 01:05:38;;;;;;;15.80;6.13;;;;;;;16.04;77.73;101486.88;4981779;28;20029;-74
2022/07/04 01:08:04;;;;;;;18.88;6.97;;;;;;;16.05;77.70;101487.72;4986056;28;20088;-74
2022/07/04 01:10:30;;;;;;;18.17;6.82;;;;;;;16.06;77.67;101495.72;4994053;28;20026;-74
2022/07/04 01:12:55;;;;;;;20.35;7.18;;;;;;;15.93;77.88;101485.38;4974872;28;20037;-74
2022/07/04 01:15:21;;;;;;;18.13;7.50;;;;;;;15.86;78.40;101489.00;4984203;28;20034;-73
2022/07/04 01:17:46;;;;;;;23.00;8.00;;;;;;;15.89;78.33;101494.94;4976077;28;20033;-74
2022/07/04 01:20:13;;;;;;;22.80;9.10;;;;;;;15.76;79.08;101494.66;4984254;28;20022;-73
2022/07/04 01:22:38;;;;;;;18.25;8.30;;;;;;;15.72;79.28;101493.34;4974084;28;20106;-73
2022/07/04 01:25:04;;;;;;;16.30;7.28;;;;;;;15.71;79.04;101497.06;4989786;28;20023;-73
2022/07/04 01:27:29;;;;;;;16.10;7.50;;;;;;;15.81;78.27;101492.25;4975040;28;20499;-73
2022/07/04 01:29:55;;;;;;;23.30;8.00;;;;;;;15.84;78.38;101491.88;4977160;28;20121;-73
2022/07/04 01:32:20;;;;;;;20.77;8.65;;;;;;;15.53;79.47;101501.91;4978615;28;20036;-74
2022/07/04 01:34:45;;;;;;;18.55;9.07;;;;;;;15.63;79.00;101483.44;4976009;28;20109;-74
2022/07/04 01:37:11;;;;;;;18.70;8.80;;;;;;;15.61;79.29;101489.06;4975742;28;20425;-74
2022/07/04 01:39:37;;;;;;;24.10;9.65;;;;;;;15.47;79.70;101496.09;4973104;28;20026;-73
2022/07/04 01:42:03;;;;;;;20.08;10.82;;;;;;;15.52;79.84;101497.44;4975213;28;20074;-75
2022/07/04 01:44:28;;;;;;;16.00;10.77;;;;;;;15.46;79.57;101504.47;4983521;28;20062;-76
2022/07/04 01:46:54;;;;;;;26.58;11.55;;;;;;;15.58;79.32;101502.19;4983178;28;20120;-74
2022/07/04 01:49:19;;;;;;;17.92;11.32;;;;;;;15.53;79.42;101489.09;4977158;28;20069;-74
2022/07/04 01:51:47;;;;;;;30.05;10.98;;;;;;;15.61;79.32;101493.69;4987642;28;20026;-74
2022/07/04 01:54:13;;;;;;;23.63;12.30;;;;;;;15.43;79.76;101500.19;4979244;28;20061;-74
2022/07/04 01:56:42;;;;;;;26.35;13.20;;;;;;;15.58;79.26;101502.19;4975148;28;20050;-74
2022/07/04 01:59:08;;;;;;;24.25;12.98;;;;;;;15.48;79.42;101495.06;4994668;28;20030;-74
2022/07/04 02:01:34;;;;;;;23.98;12.63;;;;;;;15.46;79.54;101516.25;4975980;28;20076;-74
2022/07/04 02:04:02;;;;;;;25.80;14.45;;;;;;;15.28;80.61;101504.69;4979145;28;20038;-74
2022/07/04 02:06:28;;;;;;;30.13;13.60;;;;;;;15.33;80.01;101510.47;4978944;28;20034;-74
2022/07/04 02:14:23;;;;;;;20.63;13.38;;;;;;;15.46;79.90;101518.97;4996722;28;20044;-75
2022/07/04 02:16:49;;;;;;;30.00;15.15;;;;;;;15.31;80.15;101511.66;4974488;28;20038;-73
2022/07/04 02:19:14;;;;;;;22.30;13.75;;;;;;;15.36;80.33;101510.13;4980689;28;20034;-75
2022/07/04 02:21:39;;;;;;;18.60;13.20;;;;;;;15.39;80.13;101512.50;4998530;28;20034;-73
2022/07/04 02:24:05;;;;;;;28.35;15.38;;;;;;;15.51;79.76;101501.19;4975732;28;20202;-74
2022/07/04 02:26:31;;;;;;;26.85;15.02;;;;;;;15.28;80.96;101512.88;4984960;28;20037;-73
2022/07/04 02:28:56;;;;;;;34.47;16.25;;;;;;;15.35;80.17;101513.88;4981444;28;20037;-73
2022/07/04 02:31:22;;;;;;;31.60;15.60;;;;;;;15.30;80.46;101510.81;4982411;28;20033;-73
2022/07/04 02:33:47;;;;;;;32.83;16.63;;;;;;;15.28;80.69;101512.88;4980012;28;20050;-74
2022/07/04 02:36:12;;;;;;;24.27;16.38;;;;;;;15.28;80.47;101507.41;4978359;28;20030;-76
2022/07/04 02:38:38;;;;;;;28.98;16.27;;;;;;;15.21;80.71;101506.41;5006082;28;20121;-75
2022/07/04 02:41:03;;;;;;;25.33;14.95;;;;;;;15.19;80.76;101508.44;4982621;28;20034;-75
2022/07/04 02:43:28;;;;;;;32.10;16.55;;;;;;;15.10;80.99;101510.34;4990904;28;20034;-75
2022/07/04 02:45:54;;;;;;;28.70;15.38;;;;;;;15.39;80.11;101504.31;4994749;28;20058;-75
2022/07/04 02:48:19;;;;;;;22.98;14.13;;;;;;;15.37;79.96;101505.50;5001666;28;20037;-75
2022/07/04 02:50:44;;;;;;;28.50;14.98;;;;;;;15.25;80.36;101506.88;4975468;28;20539;-75
2022/07/04 02:53:10;;;;;;;25.38;14.63;;;;;;;15.16;80.70;101503.34;5000231;28;20068;-74
2022/07/04 02:55:35;;;;;;;22.85;13.60;;;;;;;15.26;80.49;101509.47;4983269;28;20368;-75
2022/07/04 02:58:00;;;;;;;23.15;13.38;;;;;;;15.34;79.69;101511.31;4989315;28;20038;-75
2022/07/04 03:00:26;;;;;;;28.88;13.20;;;;;;;15.41;79.33;101513.19;4975675;28;20038;-75
2022/07/04 03:02:53;;;;;;;23.80;14.75;;;;;;;15.42;79.23;101520.34;4980352;28;20060;-75
2022/07/04 03:05:19;;;;;;;25.92;13.25;;;;;;;15.27;79.44;101522.09;4995793;28;20026;-75
2022/07/04 03:07:44;;;;;;;27.73;13.32;;;;;;;15.11;80.27;101522.09;4994536;28;20028;-74
2022/07/04 03:10:09;;;;;;;24.08;12.80;;;;;;;15.18;79.88;101521.22;4977187;28;20138;-75
2022/07/04 03:12:35;;;;;;;25.30;11.07;;;;;;;15.28;79.58;101529.25;4990417;28;20026;-76
2022/07/04 03:15:00;;;;;;;22.48;10.23;;;;;;;15.25;79.59;101524.09;4993565;28;20018;-75
2022/07/04 03:17:26;;;;;;;21.95;10.13;;;;;;;15.20;79.32;101527.38;4981199;28;20490;-75
2022/07/04 03:19:51;;;;;;;18.38;10.27;;;;;;;15.23;79.21;101526.16;4978436;28;20030;-75
2022/07/04 03:22:17;;;;;;;20.83;10.35;;;;;;;15.05;80.03;101533.69;4978551;28;20073;-75
2022/07/04 03:24:42;;;;;;;23.48;10.73;;;;;;;15.16;79.55;101536.06;4981506;28;20085;-75
2022/07/04 03:27:08;;;;;;;15.95;8.93;;;;;;;15.24;79.10;101532.47;4983207;28;20498;-75
2022/07/04 03:29:35;;;;;;;20.85;9.88;;;;;;;15.26;78.59;101530.41;4995838;28;20081;-75
2022/07/04 03:32:00;;;;;;;18.55;10.38;;;;;;;15.13;79.30;101528.25;4978167;28;20038;-75
2022/07/04 03:34:26;;;;;;;17.95;9.98;;;;;;;15.11;79.51;101528.38;4976196;28;20033;-75
2022/07/04 03:36:51;;;;;;;20.35;9.85;;;;;;;15.17;79.59;101533.16;4981363;28;20084;-75
2022/07/04 03:39:16;;;;;;;20.30;9.35;;;;;;;15.23;79.37;101542.53;4987202;28;20121;-75
2022/07/04 03:41:42;;;;;;;21.92;10.25;;;;;;;15.15;79.62;101540.69;4974205;28;20033;-75
2022/07/04 03:44:07;;;;;;;16.88;9.23;;;;;;;15.29;78.86;101544.56;4985013;28;20021;-75
2022/07/04 03:46:33;;;;;;;24.00;10.60;;;;;;;15.31;78.68;101545.25;4998036;28;20057;-75
2022/07/04 03:48:59;;;;;;;25.98;11.85;;;;;;;15.05;80.10;101547.31;4980700;28;20014;-75
2022/07/04 03:51:24;;;;;;;14.35;10.07;;;;;;;15.27;79.11;101554.81;4974849;28;20030;-75
2022/07/04 03:53:50;;;;;;;22.20;11.55;;;;;;;15.13;79.69;101563.72;4984646;28;20074;-75
2022/07/04 03:56:15;;;;;;;20.23;12.38;;;;;;;15.10;79.98;101561.31;4977670;28;20026;-73
2022/07/04 03:58:42;;;;;;;22.50;11.60;;;;;;;14.99;80.40;101556.19;4993970;28;20041;-73
2022/07/04 04:01:08;;;;;;;20.15;10.40;;;;;;;15.32;79.12;101557.91;4978463;28;20037;-74
2022/07/04 04:06:18;;;;;;;29.80;12.32;;;;;;;15.10;79.86;101564.88;4994544;28;20049;-74
2022/07/04 04:08:44;;;;;;;21.85;11.88;;;;;;;15.35;78.59;101564.88;4981306;28;20014;-74
2022/07/04 04:11:09;;;;;;;33.22;12.65;;;;;;;15.19;79.27;101573.91;4973697;28;20026;-74
2022/07/04 04:13:35;;;;;;;22.17;12.25;;;;;;;15.32;78.38;101574.25;4980439;28;20069;-74
2022/07/04 04:16:00;;;;;;;23.85;12.57;;;;;;;15.38;78.47;101576.28;4984190;28;20030;-74
2022/07/04 04:18:26;;;;;;;21.83;13.10;;;;;;;15.32;78.56;101574.25;4980030;28;20030;-74
2022/07/04 04:20:52;;;;;;;16.73;11.50;;;;;;;15.38;78.24;101579.00;4981476;28;20023;-74
2022/07/04 04:23:17;;;;;;;17.98;10.60;;;;;;;15.65;77.25;101574.25;4971886;28;20534;-74
2022/07/04 04:25:42;;;;;;;26.13;11.02;;;;;;;15.58;77.48;101573.16;4998515;28;20034;-74
2022/07/04 04:28:08;;;;;;;21.52;13.05;;;;;;;15.19;78.55;101579.34;5000393;28;20069;-74
2022/07/04 04:30:33;;;;;;;22.38;11.52;;;;;;;15.37;78.08;101577.31;4989771;28;20033;-74
2022/07/04 04:32:59;;;;;;;20.85;10.90;;;;;;;15.35;78.49;101590.28;4983030;28;20018;-74
2022/07/04 04:35:25;;;;;;;19.88;10.07;;;;;;;15.57;77.23;101582.38;4978233;28;20026;-74
2022/07/04 04:37:50;;;;;;;23.38;9.18;;;;;;;15.68;76.85;101590.25;4991382;28;20042;-74
2022/07/04 04:40:16;;;;;;;17.23;9.43;;;;;;;15.77;76.25;101591.94;4985409;28;20033;-74
2022/07/04 04:42:42;;;;;;;20.52;8.88;;;;;;;15.84;75.99;101595.66;4982010;28;20049;-74
2022/07/04 04:45:08;;;;;;;13.23;8.23;;;;;;;15.78;75.65;101595.50;4981335;28;20435;-75
2022/07/04 04:47:33;;;;;;;14.13;7.55;;;;;;;15.78;75.53;101599.13;4972276;28;20035;-74
2022/07/04 04:50:00;;;;;;;18.08;6.90;;;;;;;15.80;75.27;101607.13;4978136;28;20032;-75
2022/07/04 04:52:26;;;;;;;20.75;6.95;;;;;;;16.02;74.36;101604.47;4972874;28;20030;-74
2022/07/04 04:54:51;;;;;;;17.92;7.18;;;;;;;15.92;74.73;101614.78;4970816;28;20041;-75
2022/07/04 04:57:17;;;;;;;10.50;6.35;;;;;;;15.89;74.49;101620.56;4974946;28;20121;-75
2022/07/04 04:59:42;;;;;;;15.32;6.55;;;;;;;16.12;74.17;101614.38;4977881;28;20186;-75
2022/07/04 05:02:07;;;;;;;16.65;6.30;;;;;;;16.09;73.83;101609.25;4976280;28;20113;-75
2022/07/04 05:04:33;;;;;;;13.13;5.95;;;;;;;16.02;74.22;101615.41;4970377;28;20092;-75
2022/07/04 05:06:58;;;;;;;9.43;5.20;;;;;;;16.06;73.22;101609.63;4970034;28;20018;-74
2022/07/04 05:09:24;;;;;;;16.80;6.60;;;;;;;16.24;73.70;101607.50;4989479;28;20086;-75
2022/07/04 05:11:49;;;;;;;11.32;6.05;;;;;;;16.01;73.63;101608.25;4973259;28;20026;-75
2022/07/04 05:14:15;;;;;;;12.43;6.30;;;;;;;16.08;73.78;101618.47;4970996;28;20113;-75
2022/07/04 05:16:40;;;;;;;16.48;7.00;;;;;;;16.10;73.45;101621.88;4975508;28;20033;-75
2022/07/04 05:19:06;;;;;;;17.08;6.10;;;;;;;16.10;74.16;101622.72;4971883;28;20023;-75
2022/07/04 05:21:31;;;;;;;14.25;6.88;;;;;;;16.20;73.53;101617.06;4974386;28;20105;-75
2022/07/04 05:23:57;;;;;;;16.83;6.32;;;;;;;16.31;72.41;101622.16;4970286;28;20100;-75
2022/07/04 05:26:22;;;;;;;13.38;6.20;;;;;;;16.17;72.94;101623.75;4971730;28;20026;-74
2022/07/04 05:28:48;;;;;;;18.27;5.75;;;;;;;16.57;72.30;101629.22;4969881;28;20037;-74
2022/07/04 05:31:13;;;;;;;16.08;5.80;;;;;;;16.51;71.81;101631.63;4988254;28;20104;-74
2022/07/04 05:33:39;;;;;;;12.98;5.28;;;;;;;16.51;71.67;101631.63;4970042;28;20015;-74
2022/07/04 05:36:05;;;;;;;19.00;5.50;;;;;;;16.51;71.20;101623.41;4972177;28;20494;-74
2022/07/04 05:38:30;;;;;;;9.45;3.92;;;;;;;16.54;71.10;101624.94;4977949;28;20018;-74
2022/07/04 05:40:55;;;;;;;11.55;4.22;;;;;;;16.76;70.71;101623.31;4973994;28;20029;-75
2022/07/04 05:43:25;;;;;;;16.15;4.28;;;;;;;16.86;70.47;101617.59;4973125;28;20081;-74
2022/07/04 05:45:51;;;;;;;17.58;4.45;;;;;;;16.42;71.64;101615.41;4973692;28;20117;-75
2022/07/04 05:48:16;;;;;;;12.23;4.30;;;;;;;16.68;70.62;101606.91;4975665;28;20547;-75
2022/07/04 05:50:42;;;;;;;15.45;3.78;;;;;;;16.74;69.92;101611.69;4973120;28;20025;-74
2022/07/04 05:53:07;;;;;;;15.68;3.83;;;;;;;16.69;69.60;101622.28;4969664;28;20018;-75
2022/07/04 05:55:34;;;;;;;11.95;3.47;;;;;;;16.72;69.46;101608.28;4971449;28;20026;-75
2022/07/04 05:58:00;;;;;;;10.60;3.42;;;;;;;16.75;69.53;101605.19;4996979;28;20025;-75
2022/07/04 06:00:25;;;;;;;9.63;4.03;;;;;;;16.85;68.83;101616.75;4980600;28;20014;-75
2022/07/04 06:02:51;;;;;;;11.63;3.50;;;;;;;16.78;68.20;101621.25;4979096;28;20030;-72
2022/07/04 06:05:16;;;;;;;11.85;3.13;;;;;;;16.49;69.19;101622.72;4971023;28;20022;-71
2022/07/04 06:07:41;;;;;;;8.82;3.13;;;;;;;16.68;68.28;101617.84;4969997;28;20018;-72
2022/07/04 06:10:08;;;;;;;6.13;3.13;;;;;;;16.86;67.66;101617.59;4970879;28;20023;-72
2022/07/04 06:12:34;;;;;;;17.98;3.40;;;;;;;16.64;68.44;101624.72;4970388;28;20023;-72
2022/07/04 06:14:59;;;;;;;12.02;2.38;;;;;;;16.90;67.53;101625.28;4969833;28;20030;-72
2022/07/04 06:17:25;;;;;;;11.73;2.70;;;;;;;16.97;66.83;101620.78;4970807;28;20026;-71
2022/07/04 06:19:50;;;;;;;9.05;2.33;;;;;;;16.83;66.92;101624.28;4969648;28;20027;-72
2022/07/04 06:22:16;;;;;;;9.32;2.28;;;;;;;16.90;66.41;101625.28;4968496;28;20101;-72
2022/07/04 06:24:41;;;;;;;13.70;2.03;;;;;;;17.36;65.65;101619.78;4962634;28;20502;-72
2022/07/04 06:27:07;;;;;;;15.93;2.78;;;;;;;17.37;65.64;101626.94;4965727;28;20050;-72
2022/07/04 06:29:32;;;;;;;13.02;3.33;;;;;;;17.27;66.34;101626.34;4970892;28;20031;-70
2022/07/04 06:31:58;;;;;;;9.68;2.55;;;;;;;17.11;66.14;101621.88;4968034;28;20109;-71
2022/07/04 06:37:07;;;;;;;11.60;2.17;;;;;;;17.57;64.85;101617.19;4983750;28;20054;-71
2022/07/04 06:39:33;;;;;;;7.30;1.70;;;;;;;17.59;63.87;101609.63;4977046;28;20027;-71
2022/07/04 06:41:58;;;;;;;9.60;2.22;;;;;;;17.35;63.88;101615.34;4962978;28;20029;-71
2022/07/04 06:44:23;;;;;;;9.80;2.63;;;;;;;17.73;63.63;101613.44;4962182;28;20521;-72
2022/07/04 06:46:49;;;;;;;10.27;2.00;;;;;;;17.48;62.73;101618.31;4960666;28;20110;-72
2022/07/04 06:49:15;;;;;;;17.05;2.10;;;;;;;17.41;63.44;101644.72;4961074;28;20440;-72
2022/07/04 06:51:40;;;;;;;11.30;2.95;;;;;;;17.38;63.75;101645.06;4973823;28;20078;-71
2022/07/04 06:54:06;;;;;;;6.60;2.22;;;;;;;17.35;63.39;101629.03;4975696;28;20014;-70
2022/07/04 06:56:31;;;;;;;10.43;2.80;;;;;;;17.63;63.26;101632.88;4963130;28;20109;-71
2022/07/04 06:58:56;;;;;;;8.30;2.03;;;;;;;17.96;62.33;101632.56;4960842;28;20022;-71
2022/07/04 07:01:22;;;;;;;9.80;1.95;;;;;;;17.80;62.53;101632.72;4960709;28;20052;-71
2022/07/04 07:03:47;;;;;;;6.20;1.92;;;;;;;17.61;62.49;101629.47;4980507;28;20121;-70
2022/07/04 07:06:13;;;;;;;7.97;2.10;;;;;;;17.82;62.09;101608.75;4980483;28;20014;-69
2022/07/04 07:08:38;;;;;;;10.50;2.22;;;;;;;17.90;60.27;101625.09;4974258;28;20493;-71
2022/07/04 07:11:13;;;;;;;7.75;2.67;;;;;;;17.88;60.72;101613.47;4968386;28;20030;-70
2022/07/04 07:13:41;;;;;;;10.95;2.35;;;;;;;17.60;62.54;101622.28;4969417;28;20021;-70
2022/07/04 07:16:06;;;;;;;6.47;2.20;;;;;;;17.98;61.40;101614.03;4986462;28;20027;-71
2022/07/04 07:18:32;;;;;;;7.38;1.80;;;;;;;17.95;59.74;101619.91;4971570;28;20034;-70
2022/07/04 07:20:57;;;;;;;6.55;1.63;;;;;;;18.02;59.81;101620.84;4972960;28;20026;-70
2022/07/04 07:23:22;;;;;;;7.78;1.42;;;;;;;18.04;60.21;101616.00;4990378;28;20110;-71
2022/07/04 07:25:48;;;;;;;9.20;1.85;;;;;;;17.98;60.26;101625.00;4975197;28;20072;-70
2022/07/04 07:28:13;;;;;;;11.25;2.38;;;;;;;18.34;59.29;101607.78;4975296;28;20018;-72
2022/07/04 07:30:39;;;;;;;7.57;1.63;;;;;;;18.47;58.88;101613.44;4972568;28;20117;-71
2022/07/04 07:33:04;;;;;;;4.63;1.85;;;;;;;18.51;58.55;101614.72;4990567;28;20034;-70
2022/07/04 07:35:29;;;;;;;10.98;1.90;;;;;;;18.67;57.49;101624.66;4977472;28;20049;-70
2022/07/04 07:37:55;;;;;;;13.65;2.15;;;;;;;18.21;58.91;101618.56;4987769;28;20018;-70
2022/07/04 07:40:20;;;;;;;8.45;1.48;;;;;;;18.52;57.92;101632.91;4968126;28;20039;-72
2022/07/04 07:42:46;;;;;;;6.82;1.60;;;;;;;18.51;57.08;101614.72;4973495;28;20038;-70
2022/07/04 07:45:11;;;;;;;6.35;1.42;;;;;;;18.58;56.95;101621.16;4972249;28;20071;-70
2022/07/04 07:47:37;;;;;;;11.52;2.03;;;;;;;18.45;57.13;101626.47;4990187;28;20034;-72
2022/07/04 07:50:03;;;;;;;5.57;1.58;;;;;;;18.12;57.95;101626.88;4967433;28;20038;-70
2022/07/04 07:52:29;;;;;;;9.35;1.27;;;;;;;18.24;58.37;101623.66;4977293;28;20033;-71
2022/07/04 07:54:54;;;;;;;11.27;1.77;;;;;;;18.16;58.51;101632.84;4967367;28;20057;-72
2022/07/04 07:57:20;;;;;;;9.77;1.70;;;;;;;18.35;57.87;101636.91;4971772;28;20053;-71
2022/07/04 07:59:45;;;;;;;7.90;1.30;;;;;;;18.78;57.41;101637.00;4983100;28;20022;-74
2022/07/04 08:02:11;;;;;;;8.88;1.50;;;;;;;18.49;58.11;101638.75;4968472;28;20017;-71
2022/07/04 08:04:37;;;;;;;7.28;1.88;;;;;;;18.04;58.90;101654.38;4969514;28;20034;-71
2022/07/04 08:07:07;;;;;;;12.90;1.63;;;;;;;18.32;58.15;101642.75;4971104;28;20082;-72
2022/07/04 08:09:34;;;;;;;4.23;1.30;;;;;;;18.15;56.76;101642.97;4986847;28;20010;-72
2022/07/04 08:12:00;;;;;;;6.70;1.67;;;;;;;18.90;55.26;101646.44;4977399;28;20022;-73
2022/07/04 08:14:26;;;;;;;7.90;1.42;;;;;;;19.37;53.67;101636.81;4972228;28;20482;-72
2022/07/04 08:16:52;;;;;;;7.53;1.30;;;;;;;19.29;53.01;101623.19;4970252;28;20041;-73
2022/07/04 08:19:17;;;;;;;5.63;1.40;;;;;;;19.67;52.45;101624.59;4971011;28;20023;-72
2022/07/04 08:21:43;;;;;;;8.40;1.50;;;;;;;19.85;51.80;101617.75;4967599;28;20038;-72
2022/07/04 08:24:08;;;;;;;6.88;1.45;;;;;;;19.63;52.27;101653.53;4988814;28;20108;-72
2022/07/04 08:26:34;;;;;;;6.90;1.70;;;;;;;19.09;53.72;101629.34;4973982;28;20026;-72
2022/07/04 08:28:59;;;;;;;8.43;1.30;;;;;;;19.30;52.54;101635.88;4976033;28;20692;-71
2022/07/04 08:31:27;;;;;;;3.53;1.33;;;;;;;19.57;52.01;101643.31;4984423;28;20033;-73
2022/07/04 08:33:52;;;;;;;6.82;1.67;;;;;;;19.35;52.15;101627.91;4992501;28;20030;-71
2022/07/04 08:36:18;;;;;;;9.75;1.40;;;;;;;19.01;50.77;101637.72;4976878;28;20021;-72
2022/07/04 08:38:44;;;;;;;8.60;1.45;;;;;;;19.25;50.87;101651.06;4967587;28;20049;-71
2022/07/04 08:41:09;;;;;;;4.15;1.20;;;;;;;19.28;50.20;101637.97;4975821;28;20026;-71
2022/07/04 08:43:36;;;;;;;14.52;1.73;;;;;;;19.34;51.84;101648.16;4969971;28;20052;-71
2022/07/04 08:46:05;;;;;;;4.72;1.48;;;;;;;19.14;52.77;101643.34;4967904;28;20029;-72
2022/07/04 08:48:32;;;;;;;5.10;1.58;;;;;;;19.40;52.34;101636.41;4967191;28;20113;-70
2022/07/04 08:51:19;;;;;;;4.63;1.00;;;;;;;19.66;52.00;101653.13;4971852;28;20026;-71
2022/07/04 08:53:56;;;;;;;4.72;1.25;;;;;;;19.77;51.03;101649.84;4970581;28;20097;-72
2022/07/04 08:59:07;;;;;;;6.30;1.27;;;;;;;19.56;51.12;101658.09;4993060;28;20324;-72
2022/07/04 09:01:33;;;;;;;10.90;1.60;;;;;;;19.69;51.16;101658.25;4991514;28;20056;-72
2022/07/04 09:04:00;;;;;;;7.85;1.52;;;;;;;19.77;50.82;101655.34;4971381;28;20026;-73
2022/07/04 09:06:27;;;;;;;11.30;1.58;;;;;;;20.27;50.35;101639.56;4965392;28;20062;-72
2022/07/04 09:08:53;;;;;;;10.07;1.10;;;;;;;20.31;49.92;101646.38;4965593;28;20066;-72
2022/07/04 09:11:18;;;;;;;9.77;1.38;;;;;;;20.18;50.39;101635.31;4967118;28;20498;-72
2022/07/04 09:13:44;;;;;;;8.80;1.80;;;;;;;20.38;50.39;101640.91;4968983;28;20037;-70
2022/07/04 09:16:09;;;;;;;3.78;1.15;;;;;;;20.12;49.18;101644.38;4993608;28;20026;-71
2022/07/04 09:18:36;;;;;;;4.72;1.30;;;;;;;20.07;49.74;101633.13;4968677;28;20046;-70
2022/07/04 09:21:09;;;;;;;7.30;1.10;;;;;;;20.20;49.76;101644.19;4971892;28;20030;-71
2022/07/04 09:23:39;;;;;;;6.75;1.40;;;;;;;20.27;49.42;101631.31;4984644;28;20471;-71
2022/07/04 09:26:11;;;;;;;4.88;1.55;;;;;;;20.60;48.85;101627.91;4967009;28;20057;-71
2022/07/04 09:28:38;;;;;;;7.43;1.10;;;;;;;20.51;48.59;101630.00;4976004;28;20015;-70
2022/07/04 09:31:14;;;;;;;3.13;1.00;;;;;;;20.65;47.91;101630.88;4983848;28;20050;-70
2022/07/04 09:33:49;;;;;;;4.53;1.23;;;;;;;20.63;48.34;101627.50;4987803;28;20081;-71
2022/07/04 09:36:16;;;;;;;3.85;1.15;;;;;;;20.25;48.74;101633.44;4967947;28;20010;-73
2022/07/04 09:38:43;;;;;;;3.63;1.60;;;;;;;20.09;49.13;101642.03;4985420;28;20036;-72
2022/07/04 09:41:29;;;;;;;5.70;1.30;;;;;;;19.83;50.36;101630.88;4983965;28;20081;-71
2022/07/04 09:43:59;;;;;;;4.40;1.08;;;;;;;20.04;49.51;101650.03;4973549;28;20085;-72
2022/07/04 09:46:24;;;;;;;8.18;2.00;;;;;;;20.43;48.82;101637.56;4971053;28;20022;-71
2022/07/04 09:48:51;;;;;;;3.25;1.27;;;;;;;19.84;49.72;101627.06;4973614;28;20029;-72
2022/07/04 09:51:41;;;;;;;6.72;1.30;;;;;;;20.82;48.37;101632.22;4975457;28;20020;-73
2022/07/04 09:54:17;;;;;;;9.75;1.50;;;;;;;20.17;49.58;101622.63;4965726;28;20033;-72
2022/07/04 09:56:53;;;;;;;4.78;1.50;;;;;;;20.39;48.81;101626.09;4970356;28;20026;-73
2022/07/04 09:59:20;;;;;;;6.90;1.67;;;;;;;20.31;48.90;101629.88;4974634;28;20022;-72
2022/07/04 10:01:46;;;;;;;10.48;1.85;;;;;;;20.72;48.64;101626.25;4984293;28;20054;-73
2022/07/04 10:04:13;;;;;;;5.07;1.20;;;;;;;21.08;46.93;101614.06;4977151;28;20038;-72
2022/07/04 10:06:44;;;;;;;3.60;0.93;;;;;;;20.29;48.78;101631.97;4967766;28;20115;-72
2022/07/04 10:09:12;;;;;;;4.72;1.40;;;;;;;20.60;47.97;101633.41;4961945;28;20026;-72
2022/07/04 10:11:39;;;;;;;3.25;1.10;;;;;;;21.38;46.15;101620.88;4972052;28;20026;-72
2022/07/04 10:14:07;;;;;;;3.35;1.35;;;;;;;21.85;44.68;101616.22;4972233;28;20033;-72
2022/07/04 10:16:32;;;;;;;3.78;1.30;;;;;;;21.65;45.89;101637.44;4984226;28;20075;-74
2022/07/04 10:18:57;;;;;;;4.35;1.25;;;;;;;20.81;48.24;101636.03;4966451;28;20042;-73
2022/07/04 10:21:23;;;;;;;4.65;1.45;;;;;;;21.28;47.20;101620.47;4968621;28;20026;-73
2022/07/04 10:23:51;;;;;;;7.57;1.42;;;;;;;21.54;46.52;101624.31;4972254;28;20032;-72
2022/07/04 10:26:21;;;;;;;3.53;1.00;;;;;;;20.85;47.03;101620.78;4968994;28;20088;-74
2022/07/04 10:28:47;;;;;;;6.63;1.08;;;;;;;20.91;47.29;101629.28;4976214;28;20026;-73
2022/07/04 10:31:14;;;;;;;4.45;1.23;;;;;;;20.89;47.35;101632.25;4970343;28;20034;-73
2022/07/04 10:33:41;;;;;;;6.63;1.30;;;;;;;20.86;47.25;101627.13;4972630;28;20045;-72
2022/07/04 10:36:18;;;;;;;5.25;1.40;;;;;;;21.21;46.79;101614.09;4966101;28;20030;-73
2022/07/04 10:38:51;;;;;;;14.27;1.77;;;;;;;21.38;46.60;101620.88;4979336;28;20018;-72
2022/07/04 10:41:21;;;;;;;4.07;0.90;;;;;;;20.76;47.88;101619.28;4988455;28;20018;-74
2022/07/04 10:44:00;;;;;;;4.60;0.90;;;;;;;20.50;48.30;101616.44;4986654;28;20036;-73
2022/07/04 10:46:30;;;;;;;5.93;0.95;;;;;;;21.28;45.88;101614.97;4980373;28;20033;-72
2022/07/04 10:48:58;;;;;;;2.15;0.98;;;;;;;21.87;45.07;101603.06;4974211;28;20018;-72
2022/07/04 10:51:47;;;;;;;3.40;0.90;;;;;;;21.37;45.99;101608.19;4985725;28;20022;-73
2022/07/04 10:54:13;;;;;;;4.72;1.20;;;;;;;20.61;47.17;101624.13;4997161;28;20030;-73
2022/07/04 10:56:45;;;;;;;8.75;1.27;;;;;;;20.42;48.27;101616.59;4985065;28;20026;-73
2022/07/04 10:59:13;;;;;;;5.25;1.42;;;;;;;20.40;49.00;101610.44;4978791;28;20017;-73
2022/07/04 11:01:39;;;;;;;8.05;1.20;;;;;;;21.63;45.67;101611.97;4977951;28;20116;-72
2022/07/04 11:04:04;;;;;;;6.25;1.00;;;;;;;22.00;44.76;101604.09;4983365;28;20049;-72
2022/07/04 11:06:33;;;;;;;1.98;1.08;;;;;;;22.45;43.48;101605.88;4977142;28;20029;-74
2022/07/04 11:09:17;;;;;;;3.80;1.00;;;;;;;22.19;44.07;101611.50;4979725;28;20023;-73
2022/07/04 11:12:06;;;;;;;3.30;1.00;;;;;;;22.71;42.63;101604.91;4999092;28;20033;-73
2022/07/04 11:14:38;;;;;;;8.05;0.98;;;;;;;22.14;44.02;101597.50;4975051;28;20026;-73
2022/07/04 11:17:15;;;;;;;5.53;0.98;;;;;;;21.89;44.50;101598.16;4979248;28;20030;-72
2022/07/04 11:19:41;;;;;;;4.45;1.00;;;;;;;22.01;43.08;101597.50;4970798;28;20026;-72
2022/07/04 11:22:09;;;;;;;2.67;1.10;;;;;;;22.26;42.92;101589.41;4977241;28;20027;-72
2022/07/04 11:24:35;;;;;;;3.75;0.80;;;;;;;21.67;44.44;101602.25;4988548;28;20026;-74
2022/07/04 11:27:01;;;;;;;3.95;0.80;;;;;;;21.79;44.13;101584.00;4980704;28;20018;-73
2022/07/04 11:29:28;;;;;;;3.53;0.93;;;;;;;21.67;44.45;101591.22;4998125;28;20476;-74
2022/07/04 11:31:54;;;;;;;3.60;1.20;;;;;;;21.35;45.43;101588.25;4969437;28;20033;-71